Time;durP1;ratioP1;P1;durP2;ratioP2;P2;SDS_P1;SDS_P2;PMS_P1;PMS_P2;Temp;Humidity;BMP_temperature;BMP_pressure;BME280_temperature;BME280_humidity;BME280_pressure;Samples;Min_cycle;Max_cycle;Signal;HPM_P1;HPM_P2
2021/01/25 00:00:44;;;;;;;;;;;;;;;1.91;66.54;96375.84;1671440;85;25044;-87
2021/01/25 00:03:30;;;;;;;;;;;;;;;1.90;66.55;96368.23;1673723;85;22334;-86
2021/01/25 00:06:16;;;;;;;;;;;;;;;1.91;66.55;96366.81;1674310;85;26141;-87
2021/01/25 00:09:09;;;;;;;;;;;;;;;1.90;66.54;96363.90;1676080;85;25488;-86
2021/01/25 00:11:54;;;;;;;;;;;;;;;1.86;66.49;96366.77;1677541;85;20271;-87
2021/01/25 00:14:40;;;;;;;;;;;;;;;1.82;66.43;96366.16;1675779;85;25884;-86
2021/01/25 00:17:26;;;;;;;;;;;;;;;1.80;66.41;96356.41;1672023;85;22157;-84
2021/01/25 00:20:13;;;;;;;;;;;;;;;1.79;66.38;96357.36;1673849;85;26136;-84
2021/01/25 00:22:59;;;;;;;;;;;;;;;1.79;66.35;96356.06;1672130;85;24592;-84
2021/01/25 00:25:48;;;;;;;;;;;;;;;1.79;66.32;96359.11;1674880;85;20268;-84
2021/01/25 00:28:36;;;;;;;;;;;;;;;1.82;66.28;96361.00;1673809;85;25202;-84
2021/01/25 00:31:22;;;;;;;;;;;;;;;1.83;66.26;96361.38;1674184;85;22130;-84
2021/01/25 00:34:11;;;;;;;;;;;;;;;1.84;66.28;96355.75;1676235;84;26142;-84
2021/01/25 00:37:00;;;;;;;;;;;;;;;1.86;66.28;96357.28;1673530;85;24753;-84
2021/01/25 00:39:46;;;;;;;;;;;;;;;1.85;66.27;96358.23;1671484;85;20447;-83
2021/01/25 00:42:32;;;;;;;;;;;;;;;1.81;66.26;96359.34;1674694;85;24803;-83
2021/01/25 00:45:18;;;;;;;;;;;;;;;1.79;66.21;96357.36;1673468;85;22962;-83
2021/01/25 00:48:04;;;;;;;;;;;;;;;1.82;66.17;96359.71;1673507;85;26987;-84
2021/01/25 00:50:50;;;;;;;;;;;;;;;1.82;66.14;96350.69;1671753;85;24584;-83
2021/01/25 00:53:37;;;;;;;;;;;;;;;1.79;66.11;96351.38;1673210;85;20267;-83
2021/01/25 00:56:22;;;;;;;;;;;;;;;1.76;66.06;96357.55;1677222;85;24839;-84
2021/01/25 00:59:09;;;;;;;;;;;;;;;1.73;66.02;96351.33;1674297;85;22156;-84
2021/01/25 01:01:54;;;;;;;;;;;;;;;1.79;65.98;96346.22;1674593;85;26334;-84
2021/01/25 01:04:43;;;;;;;;;;;;;;;1.78;65.97;96349.26;1675764;85;24647;-84
2021/01/25 01:07:30;;;;;;;;;;;;;;;1.80;65.96;96344.00;1670977;85;20633;-86
2021/01/25 01:10:16;;;;;;;;;;;;;;;1.73;65.93;96344.88;1674394;85;25747;-86
2021/01/25 01:13:03;;;;;;;;;;;;;;;1.64;65.89;96334.70;1671564;85;22121;-86
2021/01/25 01:15:49;;;;;;;;;;;;;;;1.57;65.82;96333.50;1673400;85;26982;-86
2021/01/25 01:18:39;;;;;;;;;;;;;;;1.52;65.80;96339.43;1663410;86;25448;-86
2021/01/25 01:21:26;;;;;;;;;;;;;;;1.51;65.77;96340.35;1666837;85;20389;-86
2021/01/25 01:24:13;;;;;;;;;;;;;;;1.55;65.78;96346.11;1662067;85;24278;-86
2021/01/25 01:26:59;;;;;;;;;;;;;;;1.55;65.78;96349.98;1662776;85;22177;-86
2021/01/25 01:29:45;;;;;;;;;;;;;;;1.57;65.81;96345.56;1666656;85;27153;-86
2021/01/25 01:32:31;;;;;;;;;;;;;;;1.57;65.81;96345.09;1666876;85;24903;-86
2021/01/25 01:35:17;;;;;;;;;;;;;;;1.59;65.80;96339.36;1666351;85;20292;-86
2021/01/25 01:38:04;;;;;;;;;;;;;;;1.62;65.78;96335.77;1664893;85;25176;-86
2021/01/25 01:40:52;;;;;;;;;;;;;;;1.69;65.79;96340.87;1665438;85;22171;-86
2021/01/25 01:43:38;;;;;;;;;;;;;;;1.79;65.79;96343.64;1664222;85;26134;-86
2021/01/25 01:46:23;;;;;;;;;;;;;;;1.78;65.81;96341.52;1662605;85;24669;-86
2021/01/25 01:49:13;;;;;;;;;;;;;;;1.79;65.82;96339.31;1664935;85;20275;-85
2021/01/25 01:51:59;;;;;;;;;;;;;;;1.75;65.79;96332.69;1660265;85;25229;-86
2021/01/25 01:54:45;;;;;;;;;;;;;;;1.77;65.78;96336.46;1665623;85;22150;-86
2021/01/25 01:57:32;;;;;;;;;;;;;;;1.82;65.74;96336.51;1664795;85;26209;-85
2021/01/25 02:00:22;;;;;;;;;;;;;;;1.83;65.77;96339.45;1666853;85;24790;-86
2021/01/25 02:03:08;;;;;;;;;;;;;;;1.86;65.78;96337.94;1666089;85;20569;-85
2021/01/25 02:08:34;;;;;;;;;;;;;;;1.85;65.76;96332.45;1664767;85;22147;-86
2021/01/25 02:11:19;;;;;;;;;;;;;;;1.87;65.74;96331.03;1663279;85;26446;-85
2021/01/25 02:14:06;;;;;;;;;;;;;;;1.88;65.70;96338.67;1661856;85;24044;-87
2021/01/25 02:16:53;;;;;;;;;;;;;;;1.84;65.69;96338.53;1664508;84;20279;-87
2021/01/25 02:19:40;;;;;;;;;;;;;;;1.78;65.65;96335.53;1676933;84;24922;-87
2021/01/25 02:22:27;;;;;;;;;;;;;;;1.68;65.61;96329.73;1673815;85;22374;-87
2021/01/25 02:25:14;;;;;;;;;;;;;;;1.63;65.57;96334.84;1675546;85;26343;-87
2021/01/25 02:27:59;;;;;;;;;;;;;;;1.65;65.58;96335.54;1670560;85;24739;-87
2021/01/25 02:30:47;;;;;;;;;;;;;;;1.67;65.60;96334.98;1676442;85;20272;-86
2021/01/25 02:33:33;;;;;;;;;;;;;;;1.72;65.61;96334.20;1675395;85;24891;-86
2021/01/25 02:36:19;;;;;;;;;;;;;;;1.78;65.64;96332.50;1675647;85;22179;-86
2021/01/25 02:39:05;;;;;;;;;;;;;;;1.83;65.66;96330.42;1673617;85;26192;-87
2021/01/25 02:41:52;;;;;;;;;;;;;;;1.86;65.68;96337.11;1666264;85;24748;-86
2021/01/25 02:44:38;;;;;;;;;;;;;;;1.81;65.71;96346.91;1675682;84;20389;-86
2021/01/25 02:47:24;;;;;;;;;;;;;;;1.85;65.70;96344.05;1676071;85;25093;-87
2021/01/25 02:50:12;;;;;;;;;;;;;;;1.89;65.70;96350.64;1676848;85;22197;-87
2021/01/25 02:52:58;;;;;;;;;;;;;;;1.87;65.68;96357.64;1674292;85;26989;-86
2021/01/25 02:55:45;;;;;;;;;;;;;;;1.85;65.67;96357.41;1672629;85;24008;-87
2021/01/25 02:58:31;;;;;;;;;;;;;;;1.77;65.63;96362.25;1674962;85;20300;-87
2021/01/25 03:01:16;;;;;;;;;;;;;;;1.64;65.59;96365.64;1676422;85;24867;-86
2021/01/25 03:04:03;;;;;;;;;;;;;;;1.57;65.54;96357.16;1676460;85;23221;-87
2021/01/25 03:06:50;;;;;;;;;;;;;;;1.53;65.49;96363.42;1675367;85;27324;-85
2021/01/25 03:09:36;;;;;;;;;;;;;;;1.48;65.46;96365.48;1676032;85;24796;-86
2021/01/25 03:12:22;;;;;;;;;;;;;;;1.43;65.45;96368.38;1675092;85;20263;-85
2021/01/25 03:15:08;;;;;;;;;;;;;;;1.37;65.44;96370.52;1675221;85;25130;-86
2021/01/25 03:17:56;;;;;;;;;;;;;;;1.36;65.39;96373.59;1672374;85;22365;-85
2021/01/25 03:20:43;;;;;;;;;;;;;;;1.36;65.40;96372.31;1676788;85;26248;-86
2021/01/25 03:23:28;;;;;;;;;;;;;;;1.44;65.39;96367.45;1673875;85;24637;-86
2021/01/25 03:26:15;;;;;;;;;;;;;;;1.49;65.42;96371.00;1675328;85;20273;-85
2021/01/25 03:29:01;;;;;;;;;;;;;;;1.49;65.41;96373.59;1677198;85;24955;-85
2021/01/25 03:31:46;;;;;;;;;;;;;;;1.51;65.40;96372.57;1675976;85;22182;-85
2021/01/25 03:34:33;;;;;;;;;;;;;;;1.55;65.43;96370.60;1674883;85;26205;-85
2021/01/25 03:37:21;;;;;;;;;;;;;;;1.53;65.43;96376.31;1675947;85;24711;-85
2021/01/25 03:40:07;;;;;;;;;;;;;;;1.49;65.42;96376.98;1676789;85;20220;-85
2021/01/25 03:42:53;;;;;;;;;;;;;;;1.46;65.41;96378.95;1676629;85;27057;-85
2021/01/25 03:45:42;;;;;;;;;;;;;;;1.43;65.39;96374.81;1676892;85;22062;-85
2021/01/25 03:48:27;;;;;;;;;;;;;;;1.41;65.40;96377.15;1673701;85;27074;-85
2021/01/25 03:51:14;;;;;;;;;;;;;;;1.39;65.39;96372.55;1676522;85;24732;-85
2021/01/25 03:54:01;;;;;;;;;;;;;;;1.41;65.36;96377.98;1677607;85;20288;-85
2021/01/25 03:56:50;;;;;;;;;;;;;;;1.46;65.37;96378.95;1675630;85;24863;-85
2021/01/25 03:59:36;;;;;;;;;;;;;;;1.52;65.36;96379.84;1675792;85;22171;-85
2021/01/25 04:02:22;;;;;;;;;;;;;;;1.59;65.40;96381.89;1673036;85;26921;-85
2021/01/25 04:05:08;;;;;;;;;;;;;;;1.62;65.42;96389.44;1675288;85;24830;-85
2021/01/25 04:07:57;;;;;;;;;;;;;;;1.64;65.43;96395.30;1676311;85;20299;-87
2021/01/25 04:10:43;;;;;;;;;;;;;;;1.65;65.43;96390.96;1674313;85;25180;-87
2021/01/25 04:13:29;;;;;;;;;;;;;;;1.72;65.44;96392.67;1674865;85;22342;-87
2021/01/25 04:16:15;;;;;;;;;;;;;;;1.76;65.44;96388.49;1675466;85;26161;-87
2021/01/25 04:19:01;;;;;;;;;;;;;;;1.71;65.46;96378.95;1669359;85;24717;-87
2021/01/25 04:21:51;;;;;;;;;;;;;;;1.65;65.44;96386.64;1664957;86;20335;-87
2021/01/25 04:24:40;;;;;;;;;;;;;;;1.63;65.43;96384.64;1667472;85;24918;-87
2021/01/25 04:27:28;;;;;;;;;;;;;;;1.62;65.41;96389.89;1668060;86;22235;-87
2021/01/25 04:30:14;;;;;;;;;;;;;;;1.56;65.39;96387.27;1668290;85;25971;-87
2021/01/25 04:32:59;;;;;;;;;;;;;;;1.53;65.38;96382.75;1668203;86;23970;-87
2021/01/25 04:35:46;;;;;;;;;;;;;;;1.52;65.36;96379.84;1665677;86;20267;-87
2021/01/25 04:38:33;;;;;;;;;;;;;;;1.53;65.37;96378.89;1668565;86;25182;-87
2021/01/25 04:41:21;;;;;;;;;;;;;;;1.59;65.37;96383.17;1668462;86;22174;-87
2021/01/25 04:44:07;;;;;;;;;;;;;;;1.61;65.40;96385.66;1668532;86;26311;-87
2021/01/25 04:46:55;;;;;;;;;;;;;;;1.62;65.41;96381.70;1667250;86;24740;-87
2021/01/25 04:49:41;;;;;;;;;;;;;;;1.67;65.46;96382.22;1664387;86;20261;-87
2021/01/25 04:52:27;;;;;;;;;;;;;;;1.72;65.48;96381.90;1665840;86;25095;-88
2021/01/25 04:55:13;;;;;;;;;;;;;;;1.67;65.50;96388.66;1668353;86;22175;-87
2021/01/25 04:58:00;;;;;;;;;;;;;;;1.68;65.50;96390.78;1624541;86;26872;-88
2021/01/25 05:00:46;;;;;;;;;;;;;;;1.70;65.50;96390.19;1667201;86;24690;-87
2021/01/25 05:03:21;;;;;;;;;;;;;;;1.71;65.49;96385.86;1666297;86;20531;-88
2021/01/25 05:06:08;;;;;;;;;;;;;;;1.79;65.51;96397.79;1667779;85;24958;-87
2021/01/25 05:08:54;;;;;;;;;;;;;;;1.75;65.49;96391.16;1667216;86;22248;-87
2021/01/25 05:11:43;;;;;;;;;;;;;;;1.67;65.50;96390.41;1666355;85;26214;-88
2021/01/25 05:14:29;;;;;;;;;;;;;;;1.62;65.49;96393.30;1666826;86;24710;-87
2021/01/25 05:17:15;;;;;;;;;;;;;;;1.58;65.48;96392.33;1666272;85;20525;-87
2021/01/25 05:20:03;;;;;;;;;;;;;;;1.49;65.46;96391.16;1657439;86;24888;-87
2021/01/25 05:22:50;;;;;;;;;;;;;;;1.43;65.44;96399.76;1658523;86;23007;-87
2021/01/25 05:25:36;;;;;;;;;;;;;;;1.37;65.42;96397.13;1658155;85;26372;-88
2021/01/25 05:28:22;;;;;;;;;;;;;;;1.34;65.42;96388.31;1655000;86;24557;-88
2021/01/25 05:31:09;;;;;;;;;;;;;;;1.34;65.42;96388.78;1658271;86;20777;-87
2021/01/25 05:33:54;;;;;;;;;;;;;;;1.32;65.43;96393.20;1657811;86;24802;-88
2021/01/25 05:36:44;;;;;;;;;;;;;;;1.32;65.44;96393.20;1657575;85;22321;-88
2021/01/25 05:39:30;;;;;;;;;;;;;;;1.28;65.47;96393.88;1658310;86;27085;-87
2021/01/25 05:42:17;;;;;;;;;;;;;;;1.26;65.48;96394.42;1655738;86;24749;-86
2021/01/25 05:45:03;;;;;;;;;;;;;;;1.23;65.50;96396.75;1658515;86;20409;-83
2021/01/25 05:47:50;;;;;;;;;;;;;;;1.18;65.53;96399.27;1654167;86;24996;-84
2021/01/25 05:50:36;;;;;;;;;;;;;;;1.16;65.53;96405.80;1657451;86;23079;-84
2021/01/25 05:53:23;;;;;;;;;;;;;;;1.15;65.56;96404.59;1657411;86;26981;-84
2021/01/25 05:56:11;;;;;;;;;;;;;;;1.15;65.59;96406.72;1656982;86;24635;-83
2021/01/25 05:58:58;;;;;;;;;;;;;;;1.16;65.65;96408.83;1655673;86;20491;-83
2021/01/25 06:01:44;;;;;;;;;;;;;;;1.16;65.69;96411.41;1657818;86;25822;-84
2021/01/25 06:04:30;;;;;;;;;;;;;;;1.15;65.71;96414.91;1657597;86;22407;-84
2021/01/25 06:07:16;;;;;;;;;;;;;;;1.11;65.76;96414.75;1655249;86;26223;-87
2021/01/25 06:10:05;;;;;;;;;;;;;;;1.09;65.79;96413.55;1657186;86;24588;-87
2021/01/25 06:12:54;;;;;;;;;;;;;;;1.07;65.83;96422.31;1658426;86;20300;-87
2021/01/25 06:15:40;;;;;;;;;;;;;;;1.04;65.87;96419.92;1677609;85;24516;-84
2021/01/25 06:18:26;;;;;;;;;;;;;;;1.06;65.89;96422.77;1658598;85;22190;-86
2021/01/25 06:21:12;;;;;;;;;;;;;;;1.04;65.92;96425.07;1685617;85;26364;-87
2021/01/25 06:24:01;;;;;;;;;;;;;;;1.02;65.98;96430.34;1686046;85;24722;-86
2021/01/25 06:26:47;;;;;;;;;;;;;;;1.06;66.01;96432.25;1684677;85;20361;-85
2021/01/25 06:29:33;;;;;;;;;;;;;;;1.09;66.09;96432.07;1685930;85;25081;-84
2021/01/25 06:32:20;;;;;;;;;;;;;;;1.12;66.12;96440.41;1683068;85;22166;-86
2021/01/25 06:35:06;;;;;;;;;;;;;;;1.15;66.21;96441.49;1686608;85;26120;-86
2021/01/25 06:37:52;;;;;;;;;;;;;;;1.17;66.24;96443.52;1686998;85;24900;-86
2021/01/25 06:40:40;;;;;;;;;;;;;;;1.22;66.33;96452.23;1685571;85;20298;-86
2021/01/25 06:43:14;;;;;;;;;;;;;;;1.23;66.38;96445.70;1685742;85;25928;-86
2021/01/25 06:46:01;;;;;;;;;;;;;;;1.26;66.42;96454.97;1688371;85;22144;-87
2021/01/25 06:48:47;;;;;;;;;;;;;;;1.26;66.46;96453.22;1687604;84;27153;-87
2021/01/25 06:51:33;;;;;;;;;;;;;;;1.23;66.50;96446.16;1688006;85;25566;-87
2021/01/25 06:54:19;;;;;;;;;;;;;;;1.21;66.53;96454.44;1678343;85;20333;-86
2021/01/25 06:57:07;;;;;;;;;;;;;;;1.20;66.56;96452.81;1686731;85;24893;-83
2021/01/25 06:59:53;;;;;;;;;;;;;;;1.18;66.59;96454.19;1685806;85;23007;-84
2021/01/25 07:02:39;;;;;;;;;;;;;;;1.16;66.63;96454.73;1684653;85;26239;-84
2021/01/25 07:05:25;;;;;;;;;;;;;;;1.14;66.65;96453.20;1686462;85;24620;-84
2021/01/25 07:08:12;;;;;;;;;;;;;;;1.14;66.68;96455.32;1686463;84;20381;-86
2021/01/25 07:11:00;;;;;;;;;;;;;;;1.15;66.71;96453.55;1684758;85;24816;-86
2021/01/25 07:13:47;;;;;;;;;;;;;;;1.18;66.75;96460.63;1683070;85;23321;-87
2021/01/25 07:16:35;;;;;;;;;;;;;;;1.20;66.82;96460.05;1676308;85;26193;-86
2021/01/25 07:19:23;;;;;;;;;;;;;;;1.20;66.86;96466.98;1665058;85;24734;-84
2021/01/25 07:22:09;;;;;;;;;;;;;;;1.19;66.90;96471.77;1649180;86;20550;-83
2021/01/25 07:24:55;;;;;;;;;;;;;;;1.20;66.95;96469.06;1655301;86;25014;-83
2021/01/25 07:27:41;;;;;;;;;;;;;;;1.20;66.99;96470.36;1655390;86;23048;-85
2021/01/25 07:30:27;;;;;;;;;;;;;;;1.18;67.05;96472.69;1655458;86;26143;-85
2021/01/25 07:33:15;;;;;;;;;;;;;;;1.17;67.10;96474.43;1655377;86;25401;-84
2021/01/25 07:36:01;;;;;;;;;;;;;;;1.13;67.12;96482.00;1654640;86;20287;-85
2021/01/25 07:38:48;;;;;;;;;;;;;;;1.14;67.19;96479.80;1655515;86;25749;-85
2021/01/25 07:41:34;;;;;;;;;;;;;;;1.14;67.26;96482.83;1655403;85;22164;-86
2021/01/25 07:44:20;;;;;;;;;;;;;;;1.16;67.31;96490.80;1655347;86;26140;-86
2021/01/25 07:47:08;;;;;;;;;;;;;;;1.21;67.39;96489.22;1655320;85;20359;-86
2021/01/25 07:49:54;;;;;;;;;;;;;;;1.21;67.46;96486.19;1655240;86;20582;-85
2021/01/25 07:52:40;;;;;;;;;;;;;;;1.20;67.52;96495.32;1655409;86;24914;-84
2021/01/25 07:55:28;;;;;;;;;;;;;;;1.19;67.58;96493.20;1655478;86;22077;-84
2021/01/25 07:58:15;;;;;;;;;;;;;;;1.20;67.65;96497.41;1652976;86;26206;-85
2021/01/25 08:01:01;;;;;;;;;;;;;;;1.26;67.73;96500.88;1655663;86;24729;-85
2021/01/25 08:03:48;;;;;;;;;;;;;;;1.31;67.82;96497.21;1655505;85;20487;-85
2021/01/25 08:06:36;;;;;;;;;;;;;;;1.31;67.90;96498.01;1653881;86;24926;-85
2021/01/25 08:09:22;;;;;;;;;;;;;;;1.31;67.98;96499.79;1655397;86;22230;-85
2021/01/25 08:12:08;;;;;;;;;;;;;;;1.31;68.08;96499.30;1651998;86;26224;-85
2021/01/25 08:15:00;;;;;;;;;;;;;;;1.31;68.18;96505.73;1653218;84;24802;-84
2021/01/25 08:17:44;;;;;;;;;;;;;;;1.31;68.27;96504.45;1652579;84;20274;-84
2021/01/25 08:20:31;;;;;;;;;;;;;;;1.33;68.37;96512.09;1673773;85;25052;-84
2021/01/25 08:23:18;;;;;;;;;;;;;;;1.28;68.44;96504.66;1675931;85;23041;-84
2021/01/25 08:26:04;;;;;;;;;;;;;;;1.30;68.53;96504.57;1675458;85;26261;-83
2021/01/25 08:28:49;;;;;;;;;;;;;;;1.33;68.60;96503.07;1675437;85;24631;-83
2021/01/25 08:34:47;;;;;;;;;;;;;;;1.29;68.75;96508.06;1650981;86;25091;-86
2021/01/25 08:37:33;;;;;;;;;;;;;;;1.32;68.84;96510.44;1652485;86;22258;-83
2021/01/25 08:40:20;;;;;;;;;;;;;;;1.38;68.91;96511.33;1657633;86;26342;-83
2021/01/25 08:43:06;;;;;;;;;;;;;;;1.40;69.01;96506.92;1639196;86;25383;-84
2021/01/25 08:45:52;;;;;;;;;;;;;;;1.36;69.09;96511.91;1655048;86;20275;-84
2021/01/25 08:48:38;;;;;;;;;;;;;;;1.35;69.15;96516.70;1655206;86;25931;-85
2021/01/25 08:51:28;;;;;;;;;;;;;;;1.33;69.24;96514.66;1655404;86;22980;-86
2021/01/25 08:54:13;;;;;;;;;;;;;;;1.34;69.28;96520.19;1649141;86;26227;-84
2021/01/25 08:56:47;;;;;;;;;;;;;;;1.31;69.34;96519.91;1655099;86;24611;-84
2021/01/25 08:59:34;;;;;;;;;;;;;;;1.32;69.44;96515.59;1655133;85;20529;-84
2021/01/25 09:02:21;;;;;;;;;;;;;;;1.34;69.51;96517.16;1634719;86;25088;-83
2021/01/25 09:05:08;;;;;;;;;;;;;;;1.33;69.58;96519.82;1635110;86;22093;-83
2021/01/25 09:07:57;;;;;;;;;;;;;;;1.30;69.62;96527.30;1653644;86;26351;-86
2021/01/25 09:10:43;;;;;;;;;;;;;;;1.31;69.68;96530.70;1660897;85;24914;-85
2021/01/25 09:13:29;;;;;;;;;;;;;;;1.29;69.78;96531.25;1652270;85;20454;-83
2021/01/25 09:16:15;;;;;;;;;;;;;;;1.30;69.85;96540.64;1654988;85;25055;-83
2021/01/25 09:19:01;;;;;;;;;;;;;;;1.30;69.92;96533.74;1653831;86;22118;-83
2021/01/25 09:21:47;;;;;;;;;;;;;;;1.31;70.00;96538.44;1654822;85;26200;-83
2021/01/25 09:24:33;;;;;;;;;;;;;;;1.29;70.07;96538.98;1654973;86;24809;-85
2021/01/25 09:27:19;;;;;;;;;;;;;;;1.33;70.14;96544.30;1654959;85;20559;-83
2021/01/25 09:30:06;;;;;;;;;;;;;;;1.33;70.22;96546.88;1655116;86;24873;-83
2021/01/25 09:32:51;;;;;;;;;;;;;;;1.32;70.30;96544.76;1653821;85;22116;-83
2021/01/25 09:35:38;;;;;;;;;;;;;;;1.33;70.36;96542.55;1646579;86;26024;-83
2021/01/25 09:38:24;;;;;;;;;;;;;;;1.29;70.44;96539.81;1652540;86;24632;-86
2021/01/25 09:40:58;;;;;;;;;;;;;;;1.28;70.53;96540.73;1661600;86;20519;-83
2021/01/25 09:43:44;;;;;;;;;;;;;;;1.30;70.59;96544.51;1661806;86;24946;-83
2021/01/25 09:46:30;;;;;;;;;;;;;;;1.29;70.66;96547.55;1642504;86;22390;-85
2021/01/25 09:49:16;;;;;;;;;;;;;;;1.29;70.73;96544.14;1661441;86;27007;-87
2021/01/25 09:52:02;;;;;;;;;;;;;;;1.30;70.80;96548.37;1662255;86;25550;-86
2021/01/25 09:54:48;;;;;;;;;;;;;;;1.32;70.86;96541.35;1660634;86;20315;-87
2021/01/25 09:57:35;;;;;;;;;;;;;;;1.33;70.94;96544.30;1658194;85;24983;-87
2021/01/25 10:00:20;;;;;;;;;;;;;;;1.30;71.00;96546.63;1660901;86;22167;-85
2021/01/25 10:03:08;;;;;;;;;;;;;;;1.26;71.07;96551.13;1652271;86;40190;-85
2021/01/25 10:05:57;;;;;;;;;;;;;;;1.29;71.10;96549.29;1660236;86;25764;-85
2021/01/25 10:08:44;;;;;;;;;;;;;;;1.31;71.15;96550.83;1659315;84;20291;-85
2021/01/25 10:11:30;;;;;;;;;;;;;;;1.36;71.20;96549.28;1660799;86;24871;-85
2021/01/25 10:14:15;;;;;;;;;;;;;;;1.41;71.27;96552.39;1652326;85;22240;-85
2021/01/25 10:17:01;;;;;;;;;;;;;;;1.41;71.31;96549.35;1645710;86;27042;-85
2021/01/25 10:19:47;;;;;;;;;;;;;;;1.38;71.36;96555.14;1649352;86;24596;-85
2021/01/25 10:22:34;;;;;;;;;;;;;;;1.36;71.41;96553.14;1647655;86;20266;-86
2021/01/25 10:25:22;;;;;;;;;;;;;;;1.35;71.45;96560.05;1642276;86;25862;-85
2021/01/25 10:28:08;;;;;;;;;;;;;;;1.35;71.47;96565.66;1651484;86;22119;-85
2021/01/25 10:30:54;;;;;;;;;;;;;;;1.34;71.54;96562.70;1643820;86;26238;-85
2021/01/25 10:33:41;;;;;;;;;;;;;;;1.31;71.58;96566.78;1644703;85;24777;-85
2021/01/25 10:36:28;;;;;;;;;;;;;;;1.27;71.62;96566.13;1649004;86;20194;-85
2021/01/25 10:39:13;;;;;;;;;;;;;;;1.25;71.65;96575.23;1648349;86;25727;-87
2021/01/25 10:41:59;;;;;;;;;;;;;;;1.24;71.70;96572.31;1655929;86;22146;-87
2021/01/25 10:44:45;;;;;;;;;;;;;;;1.30;71.75;96576.71;1661744;86;26385;-87
2021/01/25 10:47:31;;;;;;;;;;;;;;;1.29;71.81;96577.17;1670640;84;24630;-87
2021/01/25 10:50:17;;;;;;;;;;;;;;;1.26;71.84;96579.92;1643755;86;20354;-85
2021/01/25 10:53:03;;;;;;;;;;;;;;;1.21;71.89;96578.92;1639654;86;24969;-86
2021/01/25 10:55:49;;;;;;;;;;;;;;;1.18;71.91;96579.13;1679059;84;23002;-86
2021/01/25 10:58:37;;;;;;;;;;;;;;;1.17;71.94;96581.34;1637007;86;26167;-86
2021/01/25 11:01:23;;;;;;;;;;;;;;;1.19;71.99;96579.96;1663499;84;24808;-86
2021/01/25 11:04:09;;;;;;;;;;;;;;;1.20;72.02;96579.05;1678996;85;20244;-88
2021/01/25 11:06:55;;;;;;;;;;;;;;;1.20;72.08;96581.13;1679328;85;24865;-88
2021/01/25 11:09:41;;;;;;;;;;;;;;;1.19;72.12;96585.11;1676544;84;22183;-88
2021/01/25 11:12:27;;;;;;;;;;;;;;;1.20;72.16;96585.48;1656808;86;26143;-87
2021/01/25 11:15:18;;;;;;;;;;;;;;;1.19;72.18;96597.53;1659692;84;24611;-85
2021/01/25 11:18:04;;;;;;;;;;;;;;;1.19;72.24;96595.42;1658260;86;20480;-85
2021/01/25 11:20:50;;;;;;;;;;;;;;;1.19;72.26;96596.70;1662571;86;25012;-84
2021/01/25 11:23:36;;;;;;;;;;;;;;;1.16;72.32;96596.42;1649930;86;22250;-87
2021/01/25 11:26:25;;;;;;;;;;;;;;;1.15;72.33;96597.34;1661452;85;26240;-86
2021/01/25 11:29:10;;;;;;;;;;;;;;;1.20;72.36;96595.30;1665784;86;24824;-86
2021/01/25 11:31:56;;;;;;;;;;;;;;;1.19;72.40;96600.11;1650089;86;20376;-86
2021/01/25 11:34:42;;;;;;;;;;;;;;;1.23;72.42;96604.61;1640930;86;25806;-85
2021/01/25 11:37:28;;;;;;;;;;;;;;;1.25;72.48;96607.44;1636994;86;22143;-87
2021/01/25 11:40:14;;;;;;;;;;;;;;;1.20;72.52;96596.59;1637395;86;26107;-87
2021/01/25 11:43:00;;;;;;;;;;;;;;;1.16;72.55;96602.03;1640916;86;25580;-88
2021/01/25 11:45:50;;;;;;;;;;;;;;;1.17;72.57;96597.25;1643724;86;20538;-88
2021/01/25 11:48:24;;;;;;;;;;;;;;;1.22;72.63;96602.48;1637503;86;25740;-87
2021/01/25 11:51:11;;;;;;;;;;;;;;;1.24;72.65;96601.11;1638953;86;23002;-86
2021/01/25 11:53:56;;;;;;;;;;;;;;;1.24;72.68;96606.27;1639867;86;26270;-87
2021/01/25 11:56:42;;;;;;;;;;;;;;;1.26;72.71;96605.69;1642410;86;24631;-88
2021/01/25 11:59:28;;;;;;;;;;;;;;;1.26;72.75;96609.09;1639853;86;20490;-88
2021/01/25 12:02:14;;;;;;;;;;;;;;;1.28;72.79;96608.18;1642959;86;24863;-89
2021/01/25 12:05:00;;;;;;;;;;;;;;;1.30;72.82;96614.08;1632981;86;22211;-88
2021/01/25 12:07:46;;;;;;;;;;;;;;;1.31;72.85;96616.53;1642318;86;26375;-86
2021/01/25 12:10:34;;;;;;;;;;;;;;;1.31;72.90;96617.02;1640266;86;24653;-87
2021/01/25 12:13:21;;;;;;;;;;;;;;;1.28;72.92;96616.73;1635594;86;20318;-88
2021/01/25 12:16:07;;;;;;;;;;;;;;;1.33;72.94;96625.47;1640151;86;24886;-88
2021/01/25 12:19:11;;;;;;;;;;;;;;;1.29;72.97;96626.59;1639367;86;20268;-88
2021/01/25 12:22:01;;;;;;;;;;;;;;;1.32;73.01;96627.22;1650852;86;27120;-88
2021/01/25 12:24:47;;;;;;;;;;;;;;;1.34;73.04;96624.09;1642774;86;25457;-86
2021/01/25 12:27:33;;;;;;;;;;;;;;;1.32;73.07;96630.25;1647628;86;20268;-86
2021/01/25 12:30:21;;;;;;;;;;;;;;;1.33;73.10;96634.48;1640828;86;25000;-87
2021/01/25 12:32:54;;;;;;;;;;;;;;;1.38;73.16;96631.16;1648913;86;23029;-87
2021/01/25 12:35:41;;;;;;;;;;;;;;;1.42;73.21;96639.89;1652757;86;26988;-86
2021/01/25 12:38:27;;;;;;;;;;;;;;;1.46;73.25;96634.10;1681821;84;24637;-85
2021/01/25 12:41:13;;;;;;;;;;;;;;;1.46;73.29;96629.78;1650676;86;20547;-85
2021/01/25 12:44:01;;;;;;;;;;;;;;;1.47;73.32;96639.17;1659734;86;24747;-85
2021/01/25 12:46:50;;;;;;;;;;;;;;;1.48;73.38;96634.36;1656966;86;22107;-85
2021/01/25 12:49:36;;;;;;;;;;;;;;;1.44;73.40;96634.19;1650334;86;26150;-89
2021/01/25 12:52:22;;;;;;;;;;;;;;;1.47;73.42;96639.63;1656591;86;24634;-89
2021/01/25 12:55:09;;;;;;;;;;;;;;;1.48;73.46;96645.13;1660472;86;20282;-89
2021/01/25 12:57:58;;;;;;;;;;;;;;;1.48;73.51;96637.39;1633446;86;27846;-89
2021/01/25 13:00:44;;;;;;;;;;;;;;;1.51;73.53;96646.23;1654412;86;22163;-85
2021/01/25 13:03:30;;;;;;;;;;;;;;;1.54;73.58;96642.17;1655027;86;26846;-89
2021/01/25 13:06:16;;;;;;;;;;;;;;;1.52;73.63;96639.70;1652207;86;24703;-88
2021/01/25 13:09:02;;;;;;;;;;;;;;;1.48;73.69;96642.55;1653928;86;20282;-89
2021/01/25 13:11:48;;;;;;;;;;;;;;;1.41;73.70;96649.86;1650603;86;25754;-89
2021/01/25 13:14:34;;;;;;;;;;;;;;;1.44;73.72;96651.40;1651043;86;22119;-89
2021/01/25 13:17:20;;;;;;;;;;;;;;;1.49;73.75;96655.34;1652281;86;26212;-89
2021/01/25 13:20:07;;;;;;;;;;;;;;;1.56;73.80;96657.09;1653259;86;24645;-88
2021/01/25 13:22:54;;;;;;;;;;;;;;;1.53;73.84;96661.13;1651250;86;20187;-85
2021/01/25 13:25:41;;;;;;;;;;;;;;;1.52;73.88;96668.52;1661801;86;25946;-90
2021/01/25 13:28:28;;;;;;;;;;;;;;;1.47;73.90;96671.84;1656511;84;22172;-88
2021/01/25 13:31:15;;;;;;;;;;;;;;;1.45;73.94;96677.55;1656853;86;26215;-88
2021/01/25 13:34:01;;;;;;;;;;;;;;;1.38;73.98;96674.51;1646139;86;24943;-87
2021/01/25 13:36:46;;;;;;;;;;;;;;;1.37;74.00;96678.46;1649318;86;20346;-85
2021/01/25 13:39:34;;;;;;;;;;;;;;;1.33;74.03;96680.41;1642940;86;25305;-85
2021/01/25 13:42:20;;;;;;;;;;;;;;;1.24;74.08;96683.55;1640465;86;23056;-85
2021/01/25 13:45:06;;;;;;;;;;;;;;;1.14;74.09;96686.33;1638524;86;26287;-84
2021/01/25 13:47:52;;;;;;;;;;;;;;;1.03;74.11;96690.00;1642737;86;24900;-87
2021/01/25 13:50:43;;;;;;;;;;;;;;;0.98;74.13;96688.16;1644495;86;20319;-88
2021/01/25 13:53:29;;;;;;;;;;;;;;;0.93;74.17;96696.14;1640079;86;24924;-88
2021/01/25 13:56:15;;;;;;;;;;;;;;;0.90;74.21;96700.20;1642280;86;22080;-87
2021/01/25 13:59:02;;;;;;;;;;;;;;;0.91;74.26;96704.44;1646834;86;26922;-89
2021/01/25 14:01:49;;;;;;;;;;;;;;;0.93;74.32;96711.59;1637313;86;24569;-88
2021/01/25 14:04:36;;;;;;;;;;;;;;;0.94;74.38;96713.25;1643807;86;20275;-89
2021/01/25 14:07:21;;;;;;;;;;;;;;;0.98;74.44;96716.50;1638346;86;24912;-89
2021/01/25 14:10:07;;;;;;;;;;;;;;;1.01;74.51;96718.88;1639217;86;22209;-89
2021/01/25 14:12:55;;;;;;;;;;;;;;;1.01;74.55;96719.70;1640558;86;26372;-89
2021/01/25 14:15:41;;;;;;;;;;;;;;;1.05;74.59;96724.20;1639881;86;24870;-89
2021/01/25 14:18:27;;;;;;;;;;;;;;;1.11;74.65;96729.83;1646396;86;20589;-85
2021/01/25 14:21:13;;;;;;;;;;;;;;;1.16;74.69;96734.70;1642505;86;24899;-85
2021/01/25 14:24:00;;;;;;;;;;;;;;;1.15;74.73;96735.16;1645070;86;23009;-90
2021/01/25 14:26:46;;;;;;;;;;;;;;;1.14;74.79;96745.12;1642728;86;27077;-85
2021/01/25 14:29:32;;;;;;;;;;;;;;;1.12;74.81;96751.27;1646691;86;24601;-86
2021/01/25 14:32:18;;;;;;;;;;;;;;;1.09;74.81;96749.69;1645491;86;20375;-90
2021/01/25 14:35:08;;;;;;;;;;;;;;;1.07;74.82;96753.29;1647156;86;25912;-88
2021/01/25 14:37:55;;;;;;;;;;;;;;;1.04;74.83;96760.72;1660938;86;22225;-88
2021/01/25 14:40:41;;;;;;;;;;;;;;;1.04;74.86;96763.75;1659200;84;26129;-88
2021/01/25 14:43:28;;;;;;;;;;;;;;;1.03;74.86;96762.13;1654112;85;24735;-87